sensor_id;sensor_type;location;lat;lon;timestamp;P1;durP1;ratioP1;P2;durP2;ratioP2
46767;SDS011;69007;48.978;18.066;2024-03-29T00:00:39;1.02;;;0.93;;
46767;SDS011;69007;48.978;18.066;2024-03-29T00:03:04;1.35;;;0.77;;
46767;SDS011;69007;48.978;18.066;2024-03-29T00:05:30;0.80;;;0.80;;
46767;SDS011;69007;48.978;18.066;2024-03-29T00:07:56;0.85;;;0.65;;
46767;SDS011;69007;48.978;18.066;2024-03-29T00:10:21;0.63;;;0.63;;
46767;SDS011;69007;48.978;18.066;2024-03-29T00:12:46;2.67;;;0.60;;
46767;SDS011;69007;48.978;18.066;2024-03-29T00:15:12;0.80;;;0.57;;
46767;SDS011;69007;48.978;18.066;2024-03-29T00:17:37;0.80;;;0.80;;
46767;SDS011;69007;48.978;18.066;2024-03-29T00:20:03;1.20;;;1.05;;
46767;SDS011;69007;48.978;18.066;2024-03-29T00:22:30;0.90;;;0.90;;
46767;SDS011;69007;48.978;18.066;2024-03-29T00:24:56;0.63;;;0.60;;
46767;SDS011;69007;48.978;18.066;2024-03-29T00:27:21;0.70;;;0.70;;
46767;SDS011;69007;48.978;18.066;2024-03-29T00:29:50;1.00;;;0.90;;
46767;SDS011;69007;48.978;18.066;2024-03-29T00:32:18;1.35;;;0.73;;
46767;SDS011;69007;48.978;18.066;2024-03-29T00:34:44;0.55;;;0.55;;
46767;SDS011;69007;48.978;18.066;2024-03-29T00:37:10;0.93;;;0.85;;
46767;SDS011;69007;48.978;18.066;2024-03-29T00:39:35;0.80;;;0.80;;
46767;SDS011;69007;48.978;18.066;2024-03-29T00:42:01;0.63;;;0.63;;
46767;SDS011;69007;48.978;18.066;2024-03-29T00:44:27;1.63;;;1.00;;
46767;SDS011;69007;48.978;18.066;2024-03-29T00:46:52;0.70;;;0.70;;
46767;SDS011;69007;48.978;18.066;2024-03-29T00:49:17;0.65;;;0.65;;
46767;SDS011;69007;48.978;18.066;2024-03-29T00:51:43;1.08;;;0.90;;
46767;SDS011;69007;48.978;18.066;2024-03-29T00:54:08;0.80;;;0.80;;
46767;SDS011;69007;48.978;18.066;2024-03-29T00:56:33;2.03;;;1.27;;
46767;SDS011;69007;48.978;18.066;2024-03-29T00:58:59;0.95;;;0.95;;
46767;SDS011;69007;48.978;18.066;2024-03-29T01:01:24;1.10;;;1.00;;
46767;SDS011;69007;48.978;18.066;2024-03-29T01:03:49;1.23;;;1.13;;
46767;SDS011;69007;48.978;18.066;2024-03-29T01:06:15;1.23;;;1.20;;
46767;SDS011;69007;48.978;18.066;2024-03-29T01:08:40;1.10;;;1.00;;
46767;SDS011;69007;48.978;18.066;2024-03-29T01:11:05;1.17;;;0.80;;
46767;SDS011;69007;48.978;18.066;2024-03-29T01:13:31;1.10;;;1.00;;
46767;SDS011;69007;48.978;18.066;2024-03-29T01:15:56;0.80;;;0.80;;
46767;SDS011;69007;48.978;18.066;2024-03-29T01:18:22;1.10;;;1.00;;
46767;SDS011;69007;48.978;18.066;2024-03-29T01:20:47;1.00;;;1.00;;
46767;SDS011;69007;48.978;18.066;2024-03-29T01:23:12;1.38;;;1.27;;
46767;SDS011;69007;48.978;18.066;2024-03-29T01:25:37;1.42;;;1.33;;
46767;SDS011;69007;48.978;18.066;2024-03-29T01:28:03;1.40;;;1.30;;
46767;SDS011;69007;48.978;18.066;2024-03-29T01:30:29;1.90;;;1.10;;
46767;SDS011;69007;48.978;18.066;2024-03-29T01:32:55;1.38;;;1.27;;
46767;SDS011;69007;48.978;18.066;2024-03-29T01:35:20;1.15;;;1.10;;
46767;SDS011;69007;48.978;18.066;2024-03-29T01:37:45;1.27;;;1.20;;
46767;SDS011;69007;48.978;18.066;2024-03-29T01:40:11;2.47;;;1.63;;
46767;SDS011;69007;48.978;18.066;2024-03-29T01:42:37;1.27;;;1.20;;
46767;SDS011;69007;48.978;18.066;2024-03-29T01:45:02;1.08;;;1.05;;
46767;SDS011;69007;48.978;18.066;2024-03-29T01:47:27;1.17;;;1.15;;
46767;SDS011;69007;48.978;18.066;2024-03-29T01:49:53;1.52;;;1.23;;
46767;SDS011;69007;48.978;18.066;2024-03-29T01:52:19;2.33;;;1.38;;
46767;SDS011;69007;48.978;18.066;2024-03-29T01:54:45;1.33;;;1.20;;
46767;SDS011;69007;48.978;18.066;2024-03-29T01:57:12;1.33;;;1.23;;
46767;SDS011;69007;48.978;18.066;2024-03-29T01:59:38;1.30;;;1.20;;
46767;SDS011;69007;48.978;18.066;2024-03-29T02:02:05;1.00;;;1.00;;
46767;SDS011;69007;48.978;18.066;2024-03-29T02:04:31;0.93;;;0.93;;
46767;SDS011;69007;48.978;18.066;2024-03-29T02:06:56;0.82;;;0.80;;
46767;SDS011;69007;48.978;18.066;2024-03-29T02:09:22;1.30;;;1.20;;
46767;SDS011;69007;48.978;18.066;2024-03-29T02:11:47;1.75;;;1.40;;
46767;SDS011;69007;48.978;18.066;2024-03-29T02:14:13;1.48;;;1.38;;
46767;SDS011;69007;48.978;18.066;2024-03-29T02:16:38;1.15;;;1.05;;
46767;SDS011;69007;48.978;18.066;2024-03-29T02:19:03;1.30;;;1.20;;
46767;SDS011;69007;48.978;18.066;2024-03-29T02:21:29;1.63;;;1.52;;
46767;SDS011;69007;48.978;18.066;2024-03-29T02:24:08;1.00;;;1.00;;
46767;SDS011;69007;48.978;18.066;2024-03-29T02:26:34;2.38;;;1.10;;
46767;SDS011;69007;48.978;18.066;2024-03-29T02:29:06;1.70;;;1.20;;
46767;SDS011;69007;48.978;18.066;2024-03-29T02:31:32;1.17;;;1.10;;
46767;SDS011;69007;48.978;18.066;2024-03-29T02:33:57;1.33;;;1.23;;
46767;SDS011;69007;48.978;18.066;2024-03-29T02:36:23;1.70;;;1.17;;
46767;SDS011;69007;48.978;18.066;2024-03-29T02:38:48;1.45;;;1.00;;
46767;SDS011;69007;48.978;18.066;2024-03-29T02:41:14;1.40;;;1.30;;
46767;SDS011;69007;48.978;18.066;2024-03-29T02:43:39;1.10;;;1.10;;
46767;SDS011;69007;48.978;18.066;2024-03-29T02:46:04;1.08;;;1.00;;
46767;SDS011;69007;48.978;18.066;2024-03-29T02:48:30;2.25;;;1.10;;
46767;SDS011;69007;48.978;18.066;2024-03-29T02:50:55;1.38;;;1.27;;
46767;SDS011;69007;48.978;18.066;2024-03-29T02:53:20;1.80;;;1.13;;
46767;SDS011;69007;48.978;18.066;2024-03-29T02:55:46;1.67;;;1.30;;
46767;SDS011;69007;48.978;18.066;2024-03-29T02:58:11;1.20;;;1.20;;
46767;SDS011;69007;48.978;18.066;2024-03-29T03:00:36;2.03;;;1.63;;
46767;SDS011;69007;48.978;18.066;2024-03-29T03:03:02;1.50;;;1.40;;
46767;SDS011;69007;48.978;18.066;2024-03-29T03:05:29;1.20;;;1.10;;
46767;SDS011;69007;48.978;18.066;2024-03-29T03:07:54;1.33;;;1.23;;
46767;SDS011;69007;48.978;18.066;2024-03-29T03:10:44;1.30;;;1.20;;
46767;SDS011;69007;48.978;18.066;2024-03-29T03:13:24;1.23;;;1.13;;
46767;SDS011;69007;48.978;18.066;2024-03-29T03:15:49;1.13;;;1.13;;
46767;SDS011;69007;48.978;18.066;2024-03-29T03:18:14;1.50;;;1.23;;
46767;SDS011;69007;48.978;18.066;2024-03-29T03:20:40;1.30;;;1.20;;
46767;SDS011;69007;48.978;18.066;2024-03-29T03:23:05;2.30;;;1.65;;
46767;SDS011;69007;48.978;18.066;2024-03-29T03:25:31;1.52;;;1.42;;
46767;SDS011;69007;48.978;18.066;2024-03-29T03:27:56;1.42;;;1.33;;
46767;SDS011;69007;48.978;18.066;2024-03-29T03:30:21;1.67;;;1.58;;
46767;SDS011;69007;48.978;18.066;2024-03-29T03:32:47;1.52;;;1.42;;
46767;SDS011;69007;48.978;18.066;2024-03-29T03:35:12;1.58;;;1.48;;
46767;SDS011;69007;48.978;18.066;2024-03-29T03:37:38;2.25;;;2.10;;
46767;SDS011;69007;48.978;18.066;2024-03-29T03:40:04;1.90;;;1.55;;
46767;SDS011;69007;48.978;18.066;2024-03-29T03:42:31;1.60;;;1.48;;
46767;SDS011;69007;48.978;18.066;2024-03-29T03:44:57;1.48;;;1.38;;
46767;SDS011;69007;48.978;18.066;2024-03-29T03:47:22;1.65;;;1.40;;
46767;SDS011;69007;48.978;18.066;2024-03-29T03:49:47;1.73;;;1.50;;
46767;SDS011;69007;48.978;18.066;2024-03-29T03:52:13;3.42;;;1.60;;
46767;SDS011;69007;48.978;18.066;2024-03-29T03:54:38;3.83;;;1.50;;
46767;SDS011;69007;48.978;18.066;2024-03-29T03:57:04;1.40;;;1.30;;
46767;SDS011;69007;48.978;18.066;2024-03-29T03:59:30;5.00;;;1.42;;
46767;SDS011;69007;48.978;18.066;2024-03-29T04:01:55;1.70;;;1.60;;
46767;SDS011;69007;48.978;18.066;2024-03-29T04:04:21;4.82;;;1.45;;
46767;SDS011;69007;48.978;18.066;2024-03-29T04:06:46;1.58;;;1.48;;
46767;SDS011;69007;48.978;18.066;2024-03-29T04:09:14;1.48;;;1.20;;
46767;SDS011;69007;48.978;18.066;2024-03-29T04:11:41;1.30;;;1.17;;
46767;SDS011;69007;48.978;18.066;2024-03-29T04:14:06;1.70;;;1.60;;
46767;SDS011;69007;48.978;18.066;2024-03-29T04:16:32;1.52;;;1.42;;
46767;SDS011;69007;48.978;18.066;2024-03-29T04:18:57;1.23;;;1.13;;
46767;SDS011;69007;48.978;18.066;2024-03-29T04:21:23;1.52;;;1.35;;
46767;SDS011;69007;48.978;18.066;2024-03-29T04:23:48;1.08;;;1.02;;
46767;SDS011;69007;48.978;18.066;2024-03-29T04:26:14;1.30;;;1.20;;
46767;SDS011;69007;48.978;18.066;2024-03-29T04:28:39;1.13;;;1.13;;
46767;SDS011;69007;48.978;18.066;2024-03-29T04:31:04;1.63;;;1.35;;
46767;SDS011;69007;48.978;18.066;2024-03-29T04:33:30;1.58;;;1.48;;
46767;SDS011;69007;48.978;18.066;2024-03-29T04:35:59;1.27;;;1.17;;
46767;SDS011;69007;48.978;18.066;2024-03-29T04:38:26;1.50;;;1.40;;
46767;SDS011;69007;48.978;18.066;2024-03-29T04:40:52;1.20;;;1.10;;
46767;SDS011;69007;48.978;18.066;2024-03-29T04:43:20;1.38;;;1.23;;
46767;SDS011;69007;48.978;18.066;2024-03-29T04:45:47;1.85;;;1.40;;
46767;SDS011;69007;48.978;18.066;2024-03-29T04:48:12;1.80;;;1.33;;
46767;SDS011;69007;48.978;18.066;2024-03-29T04:50:38;1.40;;;1.10;;
46767;SDS011;69007;48.978;18.066;2024-03-29T04:53:04;0.80;;;0.80;;
46767;SDS011;69007;48.978;18.066;2024-03-29T04:55:29;3.40;;;1.05;;
46767;SDS011;69007;48.978;18.066;2024-03-29T04:57:55;0.80;;;0.80;;
46767;SDS011;69007;48.978;18.066;2024-03-29T05:00:20;1.00;;;1.00;;
46767;SDS011;69007;48.978;18.066;2024-03-29T05:02:45;1.10;;;1.00;;
46767;SDS011;69007;48.978;18.066;2024-03-29T05:05:11;1.00;;;0.75;;
46767;SDS011;69007;48.978;18.066;2024-03-29T05:07:36;0.80;;;0.80;;
46767;SDS011;69007;48.978;18.066;2024-03-29T05:10:01;1.95;;;1.02;;
46767;SDS011;69007;48.978;18.066;2024-03-29T05:12:31;1.05;;;0.77;;
46767;SDS011;69007;48.978;18.066;2024-03-29T05:14:57;3.22;;;0.70;;
46767;SDS011;69007;48.978;18.066;2024-03-29T05:17:22;0.90;;;0.90;;
46767;SDS011;69007;48.978;18.066;2024-03-29T05:19:50;1.60;;;1.00;;
46767;SDS011;69007;48.978;18.066;2024-03-29T05:22:16;0.77;;;0.77;;
46767;SDS011;69007;48.978;18.066;2024-03-29T05:24:41;0.77;;;0.70;;
46767;SDS011;69007;48.978;18.066;2024-03-29T05:27:07;2.75;;;1.00;;
46767;SDS011;69007;48.978;18.066;2024-03-29T05:29:32;1.58;;;0.85;;
46767;SDS011;69007;48.978;18.066;2024-03-29T05:31:58;0.50;;;0.50;;
46767;SDS011;69007;48.978;18.066;2024-03-29T05:34:23;0.88;;;0.88;;
46767;SDS011;69007;48.978;18.066;2024-03-29T05:36:48;0.80;;;0.80;;
46767;SDS011;69007;48.978;18.066;2024-03-29T05:39:14;0.95;;;0.60;;
46767;SDS011;69007;48.978;18.066;2024-03-29T05:41:40;0.95;;;0.88;;
46767;SDS011;69007;48.978;18.066;2024-03-29T05:44:06;1.50;;;1.40;;
46767;SDS011;69007;48.978;18.066;2024-03-29T05:46:31;1.40;;;1.30;;
46767;SDS011;69007;48.978;18.066;2024-03-29T05:48:56;1.45;;;1.35;;
46767;SDS011;69007;48.978;18.066;2024-03-29T05:51:22;1.60;;;1.38;;
46767;SDS011;69007;48.978;18.066;2024-03-29T05:53:47;3.72;;;1.50;;
46767;SDS011;69007;48.978;18.066;2024-03-29T05:56:12;1.88;;;1.35;;
46767;SDS011;69007;48.978;18.066;2024-03-29T05:58:38;1.20;;;1.20;;
46767;SDS011;69007;48.978;18.066;2024-03-29T06:01:03;1.38;;;1.10;;
46767;SDS011;69007;48.978;18.066;2024-03-29T06:03:29;1.77;;;1.30;;
46767;SDS011;69007;48.978;18.066;2024-03-29T06:05:54;2.05;;;1.20;;
46767;SDS011;69007;48.978;18.066;2024-03-29T06:08:20;1.00;;;0.98;;
46767;SDS011;69007;48.978;18.066;2024-03-29T06:10:46;1.38;;;1.27;;
46767;SDS011;69007;48.978;18.066;2024-03-29T06:13:11;1.63;;;1.40;;
46767;SDS011;69007;48.978;18.066;2024-03-29T06:15:54;1.33;;;1.20;;
46767;SDS011;69007;48.978;18.066;2024-03-29T06:18:38;3.25;;;1.50;;
46767;SDS011;69007;48.978;18.066;2024-03-29T06:21:04;2.00;;;1.13;;
46767;SDS011;69007;48.978;18.066;2024-03-29T06:23:30;1.85;;;1.42;;
46767;SDS011;69007;48.978;18.066;2024-03-29T06:25:55;2.58;;;1.40;;
46767;SDS011;69007;48.978;18.066;2024-03-29T06:28:21;1.85;;;1.40;;
46767;SDS011;69007;48.978;18.066;2024-03-29T06:30:46;1.55;;;1.45;;
46767;SDS011;69007;48.978;18.066;2024-03-29T06:33:11;1.88;;;1.65;;
46767;SDS011;69007;48.978;18.066;2024-03-29T06:35:37;1.92;;;1.48;;
46767;SDS011;69007;48.978;18.066;2024-03-29T06:38:02;0.88;;;0.85;;
46767;SDS011;69007;48.978;18.066;2024-03-29T06:40:27;1.70;;;1.05;;
46767;SDS011;69007;48.978;18.066;2024-03-29T06:42:53;0.80;;;0.80;;
46767;SDS011;69007;48.978;18.066;2024-03-29T06:45:21;1.50;;;1.00;;
46767;SDS011;69007;48.978;18.066;2024-03-29T06:47:46;1.00;;;1.00;;
46767;SDS011;69007;48.978;18.066;2024-03-29T06:50:12;1.23;;;1.05;;
46767;SDS011;69007;48.978;18.066;2024-03-29T06:52:37;2.15;;;2.00;;
46767;SDS011;69007;48.978;18.066;2024-03-29T06:55:02;2.00;;;1.65;;
46767;SDS011;69007;48.978;18.066;2024-03-29T06:57:28;1.70;;;1.60;;
46767;SDS011;69007;48.978;18.066;2024-03-29T06:59:56;1.90;;;1.75;;
46767;SDS011;69007;48.978;18.066;2024-03-29T07:02:21;1.90;;;1.80;;
46767;SDS011;69007;48.978;18.066;2024-03-29T07:04:47;1.90;;;1.80;;
46767;SDS011;69007;48.978;18.066;2024-03-29T07:07:12;3.42;;;2.47;;
46767;SDS011;69007;48.978;18.066;2024-03-29T07:09:38;2.92;;;2.58;;
46767;SDS011;69007;48.978;18.066;2024-03-29T07:12:03;2.13;;;1.63;;
46767;SDS011;69007;48.978;18.066;2024-03-29T07:14:28;1.75;;;1.65;;
46767;SDS011;69007;48.978;18.066;2024-03-29T07:16:56;1.00;;;1.00;;
46767;SDS011;69007;48.978;18.066;2024-03-29T07:19:22;1.10;;;1.10;;
46767;SDS011;69007;48.978;18.066;2024-03-29T07:21:47;1.55;;;1.30;;
46767;SDS011;69007;48.978;18.066;2024-03-29T07:24:13;3.13;;;1.48;;
46767;SDS011;69007;48.978;18.066;2024-03-29T07:26:39;1.88;;;1.70;;
46767;SDS011;69007;48.978;18.066;2024-03-29T07:29:05;0.90;;;0.80;;
46767;SDS011;69007;48.978;18.066;2024-03-29T07:31:31;1.30;;;1.20;;
46767;SDS011;69007;48.978;18.066;2024-03-29T07:33:59;1.77;;;1.45;;
46767;SDS011;69007;48.978;18.066;2024-03-29T07:36:25;1.55;;;1.20;;
46767;SDS011;69007;48.978;18.066;2024-03-29T07:38:54;3.33;;;2.45;;
46767;SDS011;69007;48.978;18.066;2024-03-29T07:41:19;4.32;;;1.10;;
46767;SDS011;69007;48.978;18.066;2024-03-29T07:43:54;1.30;;;1.20;;
46767;SDS011;69007;48.978;18.066;2024-03-29T07:46:28;1.25;;;1.13;;
46767;SDS011;69007;48.978;18.066;2024-03-29T07:48:56;2.15;;;1.50;;
46767;SDS011;69007;48.978;18.066;2024-03-29T07:51:22;2.03;;;1.38;;
46767;SDS011;69007;48.978;18.066;2024-03-29T07:53:47;1.35;;;1.13;;
46767;SDS011;69007;48.978;18.066;2024-03-29T07:56:13;0.80;;;0.80;;
46767;SDS011;69007;48.978;18.066;2024-03-29T07:58:38;0.88;;;0.88;;
46767;SDS011;69007;48.978;18.066;2024-03-29T08:01:04;1.35;;;0.95;;
46767;SDS011;69007;48.978;18.066;2024-03-29T08:03:29;0.80;;;0.65;;
46767;SDS011;69007;48.978;18.066;2024-03-29T08:06:00;1.02;;;0.93;;
46767;SDS011;69007;48.978;18.066;2024-03-29T08:08:31;1.27;;;0.80;;
46767;SDS011;69007;48.978;18.066;2024-03-29T08:10:57;0.80;;;0.77;;
46767;SDS011;69007;48.978;18.066;2024-03-29T08:13:23;1.10;;;1.00;;
46767;SDS011;69007;48.978;18.066;2024-03-29T08:15:50;1.10;;;1.10;;
46767;SDS011;69007;48.978;18.066;2024-03-29T08:18:27;0.65;;;0.65;;
46767;SDS011;69007;48.978;18.066;2024-03-29T08:20:53;0.55;;;0.40;;
46767;SDS011;69007;48.978;18.066;2024-03-29T08:23:20;0.43;;;0.43;;
46767;SDS011;69007;48.978;18.066;2024-03-29T08:25:46;0.52;;;0.52;;
46767;SDS011;69007;48.978;18.066;2024-03-29T08:28:11;0.98;;;0.40;;
46767;SDS011;69007;48.978;18.066;2024-03-29T08:30:36;0.47;;;0.40;;
46767;SDS011;69007;48.978;18.066;2024-03-29T08:33:02;0.45;;;0.45;;
46767;SDS011;69007;48.978;18.066;2024-03-29T08:35:28;1.92;;;0.60;;
46767;SDS011;69007;48.978;18.066;2024-03-29T08:38:00;0.65;;;0.43;;
46767;SDS011;69007;48.978;18.066;2024-03-29T08:40:27;0.60;;;0.60;;
46767;SDS011;69007;48.978;18.066;2024-03-29T08:42:54;1.20;;;0.50;;
46767;SDS011;69007;48.978;18.066;2024-03-29T08:45:20;0.68;;;0.43;;
46767;SDS011;69007;48.978;18.066;2024-03-29T08:47:46;0.35;;;0.35;;
46767;SDS011;69007;48.978;18.066;2024-03-29T08:50:12;0.40;;;0.40;;
46767;SDS011;69007;48.978;18.066;2024-03-29T08:52:38;0.50;;;0.50;;
46767;SDS011;69007;48.978;18.066;2024-03-29T08:55:05;0.77;;;0.77;;
46767;SDS011;69007;48.978;18.066;2024-03-29T08:57:33;0.95;;;0.60;;
46767;SDS011;69007;48.978;18.066;2024-03-29T08:59:59;0.45;;;0.43;;
46767;SDS011;69007;48.978;18.066;2024-03-29T09:02:24;1.20;;;0.65;;
46767;SDS011;69007;48.978;18.066;2024-03-29T09:04:50;0.35;;;0.35;;
46767;SDS011;69007;48.978;18.066;2024-03-29T09:07:15;0.93;;;0.70;;
46767;SDS011;69007;48.978;18.066;2024-03-29T09:09:41;0.77;;;0.55;;
46767;SDS011;69007;48.978;18.066;2024-03-29T09:12:09;0.40;;;0.40;;
46767;SDS011;69007;48.978;18.066;2024-03-29T09:14:35;1.30;;;0.47;;
46767;SDS011;69007;48.978;18.066;2024-03-29T09:17:01;1.50;;;0.57;;
46767;SDS011;69007;48.978;18.066;2024-03-29T09:19:27;1.02;;;0.70;;
46767;SDS011;69007;48.978;18.066;2024-03-29T09:21:53;1.10;;;0.50;;
46767;SDS011;69007;48.978;18.066;2024-03-29T09:24:18;4.88;;;0.60;;
46767;SDS011;69007;48.978;18.066;2024-03-29T09:26:45;0.63;;;0.57;;
46767;SDS011;69007;48.978;18.066;2024-03-29T09:29:13;0.73;;;0.52;;
46767;SDS011;69007;48.978;18.066;2024-03-29T09:31:38;0.47;;;0.47;;
46767;SDS011;69007;48.978;18.066;2024-03-29T09:34:04;0.88;;;0.60;;
46767;SDS011;69007;48.978;18.066;2024-03-29T09:36:29;0.57;;;0.50;;
46767;SDS011;69007;48.978;18.066;2024-03-29T09:38:55;0.95;;;0.60;;
46767;SDS011;69007;48.978;18.066;2024-03-29T09:41:20;0.60;;;0.60;;
46767;SDS011;69007;48.978;18.066;2024-03-29T09:43:47;0.63;;;0.63;;
46767;SDS011;69007;48.978;18.066;2024-03-29T09:46:13;0.57;;;0.40;;
46767;SDS011;69007;48.978;18.066;2024-03-29T09:48:40;0.38;;;0.38;;
46767;SDS011;69007;48.978;18.066;2024-03-29T09:51:06;1.45;;;0.52;;
46767;SDS011;69007;48.978;18.066;2024-03-29T09:53:36;0.70;;;0.50;;
46767;SDS011;69007;48.978;18.066;2024-03-29T09:56:02;0.68;;;0.60;;
46767;SDS011;69007;48.978;18.066;2024-03-29T09:58:29;1.17;;;0.57;;
46767;SDS011;69007;48.978;18.066;2024-03-29T10:00:55;0.93;;;0.50;;
46767;SDS011;69007;48.978;18.066;2024-03-29T10:03:22;1.50;;;0.50;;
46767;SDS011;69007;48.978;18.066;2024-03-29T10:05:53;5.05;;;0.52;;
46767;SDS011;69007;48.978;18.066;2024-03-29T10:08:21;0.20;;;0.20;;
46767;SDS011;69007;48.978;18.066;2024-03-29T10:10:47;2.92;;;0.38;;
46767;SDS011;69007;48.978;18.066;2024-03-29T10:13:14;1.15;;;0.35;;
46767;SDS011;69007;48.978;18.066;2024-03-29T10:15:39;0.40;;;0.40;;
46767;SDS011;69007;48.978;18.066;2024-03-29T10:18:09;0.95;;;0.50;;
46767;SDS011;69007;48.978;18.066;2024-03-29T10:20:34;0.50;;;0.40;;
46767;SDS011;69007;48.978;18.066;2024-03-29T10:23:01;1.17;;;0.50;;
46767;SDS011;69007;48.978;18.066;2024-03-29T10:25:31;0.43;;;0.40;;
46767;SDS011;69007;48.978;18.066;2024-03-29T10:27:58;2.95;;;0.40;;
46767;SDS011;69007;48.978;18.066;2024-03-29T10:30:24;0.52;;;0.50;;
46767;SDS011;69007;48.978;18.066;2024-03-29T10:32:50;0.20;;;0.20;;
46767;SDS011;69007;48.978;18.066;2024-03-29T10:35:16;0.40;;;0.40;;
46767;SDS011;69007;48.978;18.066;2024-03-29T10:37:41;0.47;;;0.30;;
46767;SDS011;69007;48.978;18.066;2024-03-29T10:40:08;1.85;;;0.47;;
46767;SDS011;69007;48.978;18.066;2024-03-29T10:42:37;0.98;;;0.30;;
46767;SDS011;69007;48.978;18.066;2024-03-29T10:45:04;2.30;;;0.20;;
46767;SDS011;69007;48.978;18.066;2024-03-29T10:47:31;0.90;;;0.43;;
46767;SDS011;69007;48.978;18.066;2024-03-29T10:49:58;2.47;;;0.50;;
46767;SDS011;69007;48.978;18.066;2024-03-29T10:52:24;0.40;;;0.40;;
46767;SDS011;69007;48.978;18.066;2024-03-29T10:54:51;3.25;;;0.38;;
46767;SDS011;69007;48.978;18.066;2024-03-29T10:57:27;0.82;;;0.40;;
46767;SDS011;69007;48.978;18.066;2024-03-29T11:05:12;1.83;;;0.70;;
46767;SDS011;69007;48.978;18.066;2024-03-29T11:07:40;2.28;;;0.57;;
46767;SDS011;69007;48.978;18.066;2024-03-29T11:10:07;1.90;;;0.63;;
46767;SDS011;69007;48.978;18.066;2024-03-29T11:13:26;1.58;;;0.52;;
46767;SDS011;69007;48.978;18.066;2024-03-29T11:15:56;2.47;;;0.80;;
46767;SDS011;69007;48.978;18.066;2024-03-29T11:18:24;2.83;;;0.70;;
46767;SDS011;69007;48.978;18.066;2024-03-29T11:20:51;3.38;;;0.88;;
46767;SDS011;69007;48.978;18.066;2024-03-29T11:23:19;5.60;;;2.05;;
46767;SDS011;69007;48.978;18.066;2024-03-29T11:25:46;2.95;;;1.48;;
46767;SDS011;69007;48.978;18.066;2024-03-29T11:28:24;7.55;;;0.82;;
46767;SDS011;69007;48.978;18.066;2024-03-29T11:30:52;2.03;;;0.80;;
46767;SDS011;69007;48.978;18.066;2024-03-29T11:36:44;9.88;;;1.50;;
46767;SDS011;69007;48.978;18.066;2024-03-29T11:38:50;2.45;;;0.60;;
46767;SDS011;69007;48.978;18.066;2024-03-29T11:41:20;2.80;;;0.95;;
46767;SDS011;69007;48.978;18.066;2024-03-29T11:43:48;1.98;;;0.90;;
46767;SDS011;69007;48.978;18.066;2024-03-29T11:46:15;3.60;;;0.77;;
46767;SDS011;69007;48.978;18.066;2024-03-29T11:48:44;1.58;;;0.70;;
46767;SDS011;69007;48.978;18.066;2024-03-29T11:51:15;1.67;;;0.80;;
46767;SDS011;69007;48.978;18.066;2024-03-29T11:53:43;2.70;;;0.80;;
46767;SDS011;69007;48.978;18.066;2024-03-29T11:56:09;2.45;;;0.80;;
46767;SDS011;69007;48.978;18.066;2024-03-29T11:58:37;4.15;;;0.90;;
46767;SDS011;69007;48.978;18.066;2024-03-29T12:01:04;3.67;;;1.67;;
46767;SDS011;69007;48.978;18.066;2024-03-29T12:03:30;3.10;;;0.60;;
46767;SDS011;69007;48.978;18.066;2024-03-29T12:05:56;4.45;;;1.30;;
46767;SDS011;69007;48.978;18.066;2024-03-29T12:08:24;3.50;;;1.17;;
46767;SDS011;69007;48.978;18.066;2024-03-29T12:10:51;2.00;;;0.57;;
46767;SDS011;69007;48.978;18.066;2024-03-29T12:13:17;1.48;;;1.00;;
46767;SDS011;69007;48.978;18.066;2024-03-29T12:15:43;2.53;;;0.70;;
46767;SDS011;69007;48.978;18.066;2024-03-29T12:18:09;3.13;;;0.80;;
46767;SDS011;69007;48.978;18.066;2024-03-29T12:20:36;2.67;;;0.85;;
46767;SDS011;69007;48.978;18.066;2024-03-29T12:23:02;3.55;;;0.98;;
46767;SDS011;69007;48.978;18.066;2024-03-29T12:25:29;1.73;;;0.70;;
46767;SDS011;69007;48.978;18.066;2024-03-29T12:27:57;2.70;;;1.00;;
46767;SDS011;69007;48.978;18.066;2024-03-29T12:30:23;1.85;;;0.77;;
46767;SDS011;69007;48.978;18.066;2024-03-29T12:35:38;1.55;;;0.70;;
46767;SDS011;69007;48.978;18.066;2024-03-29T12:38:07;3.13;;;1.05;;
46767;SDS011;69007;48.978;18.066;2024-03-29T12:40:33;3.70;;;0.90;;
46767;SDS011;69007;48.978;18.066;2024-03-29T12:43:06;3.10;;;0.85;;
46767;SDS011;69007;48.978;18.066;2024-03-29T12:45:36;2.15;;;1.02;;
46767;SDS011;69007;48.978;18.066;2024-03-29T12:50:43;2.33;;;1.00;;
46767;SDS011;69007;48.978;18.066;2024-03-29T12:53:10;3.58;;;1.17;;
46767;SDS011;69007;48.978;18.066;2024-03-29T12:55:36;5.10;;;1.02;;
46767;SDS011;69007;48.978;18.066;2024-03-29T12:58:04;2.92;;;1.35;;
46767;SDS011;69007;48.978;18.066;2024-03-29T13:00:33;3.97;;;1.00;;
46767;SDS011;69007;48.978;18.066;2024-03-29T13:02:59;1.25;;;0.90;;
46767;SDS011;69007;48.978;18.066;2024-03-29T13:05:24;3.47;;;1.00;;
46767;SDS011;69007;48.978;18.066;2024-03-29T13:07:50;4.22;;;1.25;;
46767;SDS011;69007;48.978;18.066;2024-03-29T13:10:15;3.83;;;1.30;;
46767;SDS011;69007;48.978;18.066;2024-03-29T13:12:44;5.05;;;1.70;;
46767;SDS011;69007;48.978;18.066;2024-03-29T13:15:20;1.58;;;1.00;;
46767;SDS011;69007;48.978;18.066;2024-03-29T13:17:49;6.70;;;1.00;;
46767;SDS011;69007;48.978;18.066;2024-03-29T13:20:15;4.65;;;1.10;;
46767;SDS011;69007;48.978;18.066;2024-03-29T13:22:44;1.90;;;1.20;;
46767;SDS011;69007;48.978;18.066;2024-03-29T13:25:14;4.00;;;0.90;;
46767;SDS011;69007;48.978;18.066;2024-03-29T13:27:44;6.28;;;1.70;;
46767;SDS011;69007;48.978;18.066;2024-03-29T13:30:11;6.78;;;1.52;;
46767;SDS011;69007;48.978;18.066;2024-03-29T13:32:38;3.63;;;1.17;;
46767;SDS011;69007;48.978;18.066;2024-03-29T13:35:08;2.28;;;1.00;;
46767;SDS011;69007;48.978;18.066;2024-03-29T13:37:38;4.35;;;1.17;;
46767;SDS011;69007;48.978;18.066;2024-03-29T13:40:05;5.22;;;1.20;;
46767;SDS011;69007;48.978;18.066;2024-03-29T13:42:31;7.25;;;1.90;;
46767;SDS011;69007;48.978;18.066;2024-03-29T13:44:57;4.00;;;1.30;;
46767;SDS011;69007;48.978;18.066;2024-03-29T13:47:22;6.35;;;1.17;;
46767;SDS011;69007;48.978;18.066;2024-03-29T13:49:48;5.32;;;1.50;;
46767;SDS011;69007;48.978;18.066;2024-03-29T13:52:17;4.53;;;1.40;;
46767;SDS011;69007;48.978;18.066;2024-03-29T13:54:43;6.45;;;1.40;;
46767;SDS011;69007;48.978;18.066;2024-03-29T13:57:09;2.45;;;1.30;;
46767;SDS011;69007;48.978;18.066;2024-03-29T13:59:34;6.55;;;1.55;;
46767;SDS011;69007;48.978;18.066;2024-03-29T14:02:00;5.00;;;1.48;;
46767;SDS011;69007;48.978;18.066;2024-03-29T14:04:25;5.80;;;1.20;;
46767;SDS011;69007;48.978;18.066;2024-03-29T14:06:51;5.38;;;1.38;;
46767;SDS011;69007;48.978;18.066;2024-03-29T14:09:16;2.72;;;1.25;;
46767;SDS011;69007;48.978;18.066;2024-03-29T14:11:43;9.05;;;1.10;;
46767;SDS011;69007;48.978;18.066;2024-03-29T14:14:09;4.38;;;1.15;;
46767;SDS011;69007;48.978;18.066;2024-03-29T14:16:35;4.97;;;1.30;;
46767;SDS011;69007;48.978;18.066;2024-03-29T14:19:02;7.78;;;1.65;;
46767;SDS011;69007;48.978;18.066;2024-03-29T14:21:27;2.70;;;1.35;;
46767;SDS011;69007;48.978;18.066;2024-03-29T14:23:53;7.20;;;1.67;;
46767;SDS011;69007;48.978;18.066;2024-03-29T14:26:19;8.00;;;1.25;;
46767;SDS011;69007;48.978;18.066;2024-03-29T14:28:44;7.05;;;1.73;;
46767;SDS011;69007;48.978;18.066;2024-03-29T14:31:10;5.72;;;2.35;;
46767;SDS011;69007;48.978;18.066;2024-03-29T14:33:35;5.07;;;1.30;;
46767;SDS011;69007;48.978;18.066;2024-03-29T14:36:02;6.00;;;1.30;;
46767;SDS011;69007;48.978;18.066;2024-03-29T14:38:28;6.10;;;1.70;;
46767;SDS011;69007;48.978;18.066;2024-03-29T14:40:54;3.70;;;1.15;;
46767;SDS011;69007;48.978;18.066;2024-03-29T14:43:20;10.27;;;1.80;;